createdAt,value
2022-12-24T00:00:23.264Z,29.02
2022-12-24T00:02:52.769Z,31.60
2022-12-24T00:05:26.787Z,30.02
2022-12-24T00:07:55.690Z,31.38
2022-12-24T00:10:24.065Z,30.83
2022-12-24T00:12:52.342Z,31.25
2022-12-24T00:15:20.714Z,31.02
2022-12-24T00:17:49.026Z,31.15
2022-12-24T00:20:17.353Z,29.80
2022-12-24T00:22:45.694Z,30.55
2022-12-24T00:25:14.402Z,32.60
2022-12-24T00:27:42.782Z,34.35
2022-12-24T00:30:11.556Z,31.48
2022-12-24T00:32:39.899Z,32.80
2022-12-24T00:35:08.684Z,31.10
2022-12-24T00:37:37.026Z,33.90
2022-12-24T00:40:05.750Z,32.75
2022-12-24T00:42:34.000Z,31.27
2022-12-24T00:45:02.401Z,29.42
2022-12-24T00:47:30.730Z,32.65
2022-12-24T00:49:59.033Z,30.15
2022-12-24T00:52:27.777Z,32.15
2022-12-24T00:54:56.089Z,29.95
2022-12-24T00:57:24.410Z,31.58
2022-12-24T00:59:52.696Z,30.40
2022-12-24T01:02:21.365Z,29.95
2022-12-24T01:05:08.346Z,28.58
2022-12-24T01:07:43.270Z,27.58
2022-12-24T01:10:13.896Z,30.70
2022-12-24T01:12:42.982Z,28.37
2022-12-24T01:15:12.530Z,28.90
2022-12-24T01:17:42.232Z,30.60
2022-12-24T01:20:15.126Z,27.52
2022-12-24T01:22:43.552Z,31.05
2022-12-24T01:25:12.232Z,27.80
2022-12-24T01:27:40.552Z,28.67
2022-12-24T01:30:10.767Z,29.33
2022-12-24T01:32:39.068Z,27.17
2022-12-24T01:35:07.755Z,29.70
2022-12-24T01:37:36.049Z,30.02
2022-12-24T01:40:22.834Z,29.58
2022-12-24T01:43:09.681Z,29.95
2022-12-24T01:45:49.877Z,29.05
2022-12-24T01:48:43.864Z,25.98
2022-12-24T01:51:34.767Z,25.77
2022-12-24T01:54:32.344Z,29.23
2022-12-24T01:57:24.325Z,30.60
2022-12-24T01:59:58.767Z,28.85
2022-12-24T02:02:28.526Z,29.58
2022-12-24T02:05:06.451Z,28.00
2022-12-24T02:07:36.099Z,29.98
2022-12-24T02:10:06.001Z,30.67
2022-12-24T02:12:37.689Z,30.13
2022-12-24T02:15:07.828Z,28.77
2022-12-24T02:17:50.781Z,29.83
2022-12-24T02:20:40.116Z,29.15
2022-12-24T02:23:45.920Z,29.30
2022-12-24T02:26:57.537Z,30.02
2022-12-24T02:29:50.222Z,30.73
2022-12-24T02:32:39.755Z,30.15
2022-12-24T02:35:28.957Z,24.60
2022-12-24T02:38:07.061Z,29.33
2022-12-24T02:40:54.608Z,31.10
2022-12-24T02:43:30.318Z,30.00
2022-12-24T02:46:04.025Z,30.83
2022-12-24T02:48:33.586Z,28.55
2022-12-24T02:51:08.517Z,20.85
2022-12-24T02:53:38.059Z,27.35
2022-12-24T02:56:21.409Z,28.15
2022-12-24T02:59:10.771Z,31.13
2022-12-24T03:01:51.794Z,28.40
2022-12-24T03:04:40.202Z,29.08
2022-12-24T03:07:18.068Z,29.23
2022-12-24T03:09:58.185Z,30.55
2022-12-24T03:12:33.987Z,29.77
2022-12-24T03:15:04.210Z,24.95
2022-12-24T03:17:35.936Z,29.20
2022-12-24T03:20:05.257Z,31.73
2022-12-24T03:22:36.381Z,28.63
2022-12-24T03:25:05.475Z,28.85
2022-12-24T03:27:36.026Z,29.80
2022-12-24T03:30:12.286Z,28.77
2022-12-24T03:32:40.929Z,29.40
2022-12-24T03:35:09.934Z,20.65
2022-12-24T03:37:38.581Z,22.17
2022-12-24T03:40:08.067Z,28.25
2022-12-24T03:42:36.607Z,21.35
2022-12-24T03:45:05.558Z,27.45
2022-12-24T03:47:34.054Z,28.92
2022-12-24T03:50:02.410Z,28.35
2022-12-24T03:52:30.834Z,19.08
2022-12-24T03:54:59.153Z,27.30
2022-12-24T03:57:27.695Z,25.10
2022-12-24T03:59:55.997Z,27.17
2022-12-24T04:02:24.374Z,23.65
2022-12-24T04:04:52.861Z,27.35
2022-12-24T04:07:21.494Z,19.17
2022-12-24T04:09:49.759Z,20.85
2022-12-24T04:12:18.082Z,23.17
2022-12-24T04:14:46.417Z,28.48
2022-12-24T04:17:14.782Z,24.27
2022-12-24T04:19:43.111Z,26.63
2022-12-24T04:22:11.515Z,22.23
2022-12-24T04:24:39.763Z,24.67
2022-12-24T04:27:08.196Z,28.15
2022-12-24T04:29:36.449Z,19.40
2022-12-24T04:32:04.871Z,24.00
2022-12-24T04:34:33.805Z,16.77
2022-12-24T04:37:02.025Z,22.55
2022-12-24T04:39:30.276Z,17.75
2022-12-24T04:41:58.571Z,23.98
2022-12-24T04:44:29.938Z,17.20
2022-12-24T04:46:58.248Z,16.88
2022-12-24T04:49:26.645Z,18.98
2022-12-24T04:51:54.943Z,18.50
2022-12-24T04:54:23.242Z,26.58
2022-12-24T04:56:51.499Z,23.42
2022-12-24T04:59:19.847Z,25.67
2022-12-24T05:01:48.374Z,26.73
2022-12-24T05:04:16.826Z,18.50
2022-12-24T05:06:46.203Z,19.50
2022-12-24T05:09:14.642Z,20.90
2022-12-24T05:11:43.016Z,26.13
2022-12-24T05:14:11.374Z,18.15
2022-12-24T05:16:39.762Z,20.58
2022-12-24T05:19:08.109Z,17.25
2022-12-24T05:21:36.434Z,16.27
2022-12-24T05:24:22.874Z,16.10
2022-12-24T05:26:55.673Z,16.30
2022-12-24T05:29:24.401Z,20.52
2022-12-24T05:31:52.697Z,24.10
2022-12-24T05:34:21.061Z,18.17
2022-12-24T05:36:49.388Z,16.60
2022-12-24T05:39:19.097Z,14.65
2022-12-24T05:41:48.192Z,22.95
2022-12-24T05:44:17.504Z,15.73
2022-12-24T05:46:46.424Z,14.45
2022-12-24T05:49:15.482Z,16.23
2022-12-24T05:51:43.949Z,15.90
2022-12-24T05:54:12.435Z,14.13
2022-12-24T05:56:40.921Z,13.60
2022-12-24T05:59:09.509Z,23.85
2022-12-24T06:01:37.916Z,18.73
2022-12-24T06:04:06.424Z,17.58
2022-12-24T06:06:34.839Z,13.38
2022-12-24T06:09:03.667Z,12.88
2022-12-24T06:11:32.549Z,12.80
2022-12-24T06:14:00.934Z,14.43
2022-12-24T06:16:29.330Z,13.73
2022-12-24T06:18:57.763Z,17.10
2022-12-24T06:21:26.487Z,13.57
2022-12-24T06:23:54.818Z,21.50
2022-12-24T06:26:24.713Z,22.17
2022-12-24T06:28:53.290Z,16.75
2022-12-24T06:31:24.523Z,13.07
2022-12-24T06:33:53.985Z,13.00
2022-12-24T06:36:25.452Z,14.13
2022-12-24T06:41:24.484Z,19.40
2022-12-24T06:43:54.309Z,16.10
2022-12-24T06:46:23.175Z,21.85
2022-12-24T06:48:52.049Z,14.02
2022-12-24T06:51:21.241Z,13.65
2022-12-24T06:53:53.638Z,13.20
2022-12-24T06:56:22.859Z,14.85
2022-12-24T06:58:51.443Z,12.93
2022-12-24T07:01:21.386Z,13.63
2022-12-24T07:03:49.997Z,12.80
2022-12-24T07:06:29.723Z,21.10
2022-12-24T07:08:58.279Z,13.85
2022-12-24T07:11:27.472Z,23.25
2022-12-24T07:13:55.893Z,25.98
2022-12-24T07:16:24.613Z,12.98
2022-12-24T07:18:52.939Z,12.98
2022-12-24T07:21:21.342Z,12.23
2022-12-24T07:23:49.697Z,17.88
2022-12-24T07:26:17.915Z,12.25
2022-12-24T07:28:46.208Z,14.05
2022-12-24T07:31:14.539Z,16.65
2022-12-24T07:33:42.978Z,16.85
2022-12-24T07:36:16.679Z,14.73
2022-12-24T07:38:45.037Z,16.70
2022-12-24T07:41:13.584Z,18.60
2022-12-24T07:43:41.950Z,21.92
2022-12-24T07:46:10.372Z,14.30
2022-12-24T07:48:38.765Z,14.25
2022-12-24T07:51:07.293Z,18.38
2022-12-24T07:53:35.634Z,20.70
2022-12-24T07:56:08.952Z,17.25
2022-12-24T07:58:40.713Z,14.32
2022-12-24T08:01:09.586Z,13.32
2022-12-24T08:03:38.087Z,22.20
2022-12-24T08:06:06.882Z,18.13
2022-12-24T08:08:36.066Z,20.20
2022-12-24T08:11:06.617Z,12.27
2022-12-24T08:13:35.511Z,12.97
2022-12-24T08:16:03.936Z,20.88
2022-12-24T08:18:32.466Z,21.58
2022-12-24T08:21:01.000Z,12.85
2022-12-24T08:23:29.250Z,12.13
2022-12-24T08:25:57.577Z,18.90
2022-12-24T08:28:26.061Z,17.83
2022-12-24T08:30:54.537Z,12.55
2022-12-24T08:33:23.096Z,14.43
2022-12-24T08:35:53.256Z,22.65
2022-12-24T08:38:22.243Z,13.77
2022-12-24T08:40:51.066Z,16.67
2022-12-24T08:43:20.124Z,19.48
2022-12-24T08:45:52.522Z,21.70
2022-12-24T08:48:20.867Z,21.98
2022-12-24T08:50:49.231Z,21.33
2022-12-24T08:53:17.680Z,17.55
2022-12-24T08:55:49.013Z,21.10
2022-12-24T08:58:22.112Z,12.82
2022-12-24T09:00:50.539Z,19.88
2022-12-24T09:03:26.758Z,18.30
2022-12-24T09:05:56.432Z,12.10
2022-12-24T09:08:24.868Z,13.68
2022-12-24T09:10:53.132Z,16.20
2022-12-24T09:13:21.534Z,20.70
2022-12-24T09:15:56.759Z,20.42
2022-12-24T09:18:26.312Z,21.45
2022-12-24T09:21:01.452Z,21.70
2022-12-24T09:23:31.176Z,21.60
2022-12-24T09:25:59.598Z,18.55
2022-12-24T09:28:27.870Z,21.83
2022-12-24T09:31:01.362Z,10.73
2022-12-24T09:33:32.777Z,19.13
2022-12-24T09:36:01.530Z,13.48
2022-12-24T09:38:30.475Z,10.98
2022-12-24T09:41:03.855Z,11.75
2022-12-24T09:43:38.869Z,18.27
2022-12-24T09:46:14.563Z,13.82
2022-12-24T09:48:48.932Z,9.98
2022-12-24T09:51:29.689Z,12.63
2022-12-24T09:54:07.116Z,9.20
2022-12-24T09:56:40.883Z,19.05
2022-12-24T09:59:16.189Z,16.33
2022-12-24T10:01:44.795Z,14.93
2022-12-24T10:04:18.437Z,10.70
2022-12-24T10:06:49.785Z,20.10
2022-12-24T10:09:45.284Z,15.80
2022-12-24T10:12:37.700Z,16.80
2022-12-24T10:15:17.941Z,19.10
2022-12-24T10:17:52.479Z,16.98
2022-12-24T10:20:39.043Z,19.15
2022-12-24T10:23:23.889Z,19.98
2022-12-24T10:26:00.624Z,12.02
2022-12-24T10:28:53.147Z,12.38
2022-12-24T10:31:27.337Z,17.58
2022-12-24T10:34:00.982Z,14.40
2022-12-24T10:36:31.269Z,18.48
2022-12-24T10:38:59.929Z,13.40
2022-12-24T10:41:29.449Z,18.98
2022-12-24T10:43:58.839Z,9.90
2022-12-24T10:46:27.140Z,17.60
2022-12-24T10:49:03.000Z,10.18
2022-12-24T10:51:36.867Z,18.25
2022-12-24T10:54:09.787Z,8.65
2022-12-24T10:56:47.417Z,10.85
2022-12-24T10:59:31.606Z,15.52
2022-12-24T11:02:01.681Z,12.98
2022-12-24T11:04:33.421Z,17.55
2022-12-24T11:07:08.002Z,16.65
2022-12-24T11:09:42.495Z,18.67
2022-12-24T11:12:40.698Z,9.38
2022-12-24T11:15:23.579Z,12.43
2022-12-24T11:18:05.818Z,10.80
2022-12-24T11:20:36.647Z,15.10
2022-12-24T11:23:05.184Z,17.73
2022-12-24T11:25:48.440Z,18.25
2022-12-24T11:28:27.665Z,18.58
2022-12-24T11:31:05.523Z,18.45
2022-12-24T11:33:47.201Z,8.68
2022-12-24T11:38:44.066Z,11.15
2022-12-24T11:41:13.624Z,8.13
2022-12-24T11:43:45.423Z,10.38
2022-12-24T11:46:22.708Z,16.42
2022-12-24T11:49:17.310Z,16.65
2022-12-24T11:52:12.222Z,9.07
2022-12-24T11:54:52.814Z,9.70
2022-12-24T11:57:24.256Z,15.95
2022-12-24T11:59:53.169Z,17.52
2022-12-24T12:02:34.229Z,16.92
2022-12-24T12:05:10.705Z,17.00
2022-12-24T12:07:40.584Z,8.70
2022-12-24T12:10:26.132Z,8.93
2022-12-24T12:12:57.345Z,16.63
2022-12-24T12:15:29.805Z,17.30
2022-12-24T12:18:14.401Z,16.48
2022-12-24T12:21:05.857Z,17.25
2022-12-24T12:23:50.711Z,13.18
2022-12-24T12:26:30.556Z,8.45
2022-12-24T12:29:23.692Z,16.95
2022-12-24T12:32:02.328Z,12.50
2022-12-24T12:35:04.298Z,9.35
2022-12-24T12:37:39.461Z,8.30
2022-12-24T12:40:16.197Z,7.05
2022-12-24T12:43:07.484Z,15.32
2022-12-24T12:45:48.124Z,7.93
2022-12-24T12:48:45.838Z,13.50
2022-12-24T12:51:41.420Z,14.80
2022-12-24T12:54:27.979Z,13.73
2022-12-24T12:57:01.857Z,14.95
2022-12-24T12:59:36.386Z,7.38
2022-12-24T13:02:38.383Z,8.57
2022-12-24T13:05:37.743Z,14.25
2022-12-24T13:08:24.613Z,7.68
2022-12-24T13:10:55.512Z,12.32
2022-12-24T13:13:44.801Z,11.93
2022-12-24T13:16:33.920Z,16.27
2022-12-24T13:19:14.156Z,7.72
2022-12-24T13:21:49.607Z,13.93
2022-12-24T13:24:29.048Z,15.20
2022-12-24T13:27:17.080Z,10.07
2022-12-24T13:29:50.856Z,16.90
2022-12-24T13:32:22.405Z,9.85
2022-12-24T13:37:33.304Z,8.55
2022-12-24T13:40:07.731Z,10.63
2022-12-24T13:43:07.644Z,7.60
2022-12-24T13:45:43.519Z,14.95
2022-12-24T13:48:11.793Z,10.52
2022-12-24T13:50:45.836Z,6.53
2022-12-24T13:53:32.018Z,13.60
2022-12-24T13:56:17.501Z,13.63
2022-12-24T13:58:50.068Z,12.18
2022-12-24T14:01:25.185Z,7.95
2022-12-24T14:04:00.511Z,13.95
2022-12-24T14:06:42.088Z,12.32
2022-12-24T14:09:23.071Z,10.35
2022-12-24T14:12:00.568Z,14.30
2022-12-24T14:14:31.806Z,11.68
2022-12-24T14:17:03.919Z,13.80
2022-12-24T14:19:52.915Z,15.20
2022-12-24T14:22:24.142Z,14.98
2022-12-24T14:25:05.807Z,6.65
2022-12-24T14:30:22.645Z,6.20
2022-12-24T14:32:52.756Z,12.98
2022-12-24T14:35:28.913Z,12.02
2022-12-24T14:38:29.220Z,13.30
2022-12-24T14:41:15.923Z,14.48
2022-12-24T14:44:21.770Z,13.43
2022-12-24T14:47:08.088Z,14.52
2022-12-24T14:49:49.297Z,15.27
2022-12-24T14:53:03.312Z,15.68
2022-12-24T14:55:46.707Z,16.85
2022-12-24T14:58:33.766Z,16.73
2022-12-24T15:01:05.280Z,17.75
2022-12-24T15:06:09.687Z,16.58
2022-12-24T15:08:56.581Z,15.70
2022-12-24T15:11:25.911Z,16.08
2022-12-24T15:14:05.299Z,15.57
2022-12-24T15:16:37.809Z,14.93
2022-12-24T15:19:14.671Z,15.65
2022-12-24T15:21:44.963Z,16.30
2022-12-24T15:24:34.762Z,16.38
2022-12-24T15:27:15.474Z,16.08
2022-12-24T15:29:51.792Z,15.40
2022-12-24T15:32:22.131Z,16.73
2022-12-24T15:34:55.554Z,16.95
2022-12-24T15:37:32.033Z,16.67
2022-12-24T15:40:17.969Z,17.92
2022-12-24T15:42:46.647Z,15.80
2022-12-24T15:45:27.750Z,18.30
2022-12-24T15:48:07.733Z,16.98
2022-12-24T15:50:39.154Z,17.88
2022-12-24T15:53:20.135Z,16.85
2022-12-24T15:56:05.800Z,18.33
2022-12-24T15:58:38.316Z,17.25
2022-12-24T16:01:11.449Z,16.17
2022-12-24T16:03:56.671Z,15.32
2022-12-24T16:06:25.831Z,15.90
2022-12-24T16:08:57.124Z,15.68
2022-12-24T16:11:37.692Z,15.88
2022-12-24T16:14:18.030Z,16.25
2022-12-24T16:16:50.723Z,16.95
2022-12-24T16:19:25.211Z,17.17
2022-12-24T16:21:59.818Z,16.70
2022-12-24T16:24:32.391Z,16.83
2022-12-24T16:27:01.081Z,16.02
2022-12-24T16:29:29.932Z,15.80
2022-12-24T16:32:00.393Z,14.93
2022-12-24T16:34:31.469Z,15.02
2022-12-24T16:37:02.075Z,15.63
2022-12-24T16:39:39.696Z,16.50
2022-12-24T16:42:29.225Z,15.52
2022-12-24T16:45:00.809Z,16.42
2022-12-24T16:47:35.756Z,13.60
2022-12-24T16:50:20.665Z,13.27
2022-12-24T16:53:03.525Z,14.93
2022-12-24T16:56:00.331Z,15.43
2022-12-24T16:59:03.889Z,16.48
2022-12-24T17:02:00.527Z,13.32
2022-12-24T17:05:00.757Z,11.70
2022-12-24T17:07:43.896Z,12.95
2022-12-24T17:10:15.827Z,13.13
2022-12-24T17:15:13.916Z,14.35
2022-12-24T17:17:42.264Z,15.27
2022-12-24T17:20:11.139Z,13.73
2022-12-24T17:22:40.040Z,14.88
2022-12-24T17:25:09.018Z,13.82
2022-12-24T17:27:37.571Z,14.48
2022-12-24T17:30:06.364Z,14.35
2022-12-24T17:32:34.983Z,15.23
2022-12-24T17:35:03.873Z,17.48
2022-12-24T17:37:32.354Z,16.35
2022-12-24T17:40:00.817Z,14.00
2022-12-24T17:42:29.269Z,16.08
2022-12-24T17:44:57.562Z,17.00
2022-12-24T17:47:26.145Z,13.98
2022-12-24T17:49:54.809Z,13.25
2022-12-24T17:52:23.325Z,14.10
2022-12-24T17:55:00.651Z,13.95
2022-12-24T17:57:29.254Z,13.00
2022-12-24T18:00:00.418Z,12.02
2022-12-24T18:02:37.842Z,11.48
2022-12-24T18:05:06.683Z,10.82
2022-12-24T18:08:02.300Z,11.10
2022-12-24T18:11:04.056Z,10.13
2022-12-24T18:13:33.410Z,11.15
2022-12-24T18:16:01.828Z,9.32
2022-12-24T18:18:30.283Z,9.48
2022-12-24T18:21:03.545Z,8.90
2022-12-24T18:23:58.831Z,8.05
2022-12-24T18:30:04.981Z,8.68
2022-12-24T18:36:01.290Z,8.90
2022-12-24T18:44:25.531Z,9.05
2022-12-24T18:47:12.589Z,8.82
2022-12-24T18:53:03.788Z,9.25
2022-12-24T18:56:41.168Z,7.70
2022-12-24T18:58:33.070Z,8.50
2022-12-24T19:01:01.815Z,7.95
2022-12-24T19:03:37.937Z,6.63
2022-12-24T19:06:06.947Z,7.43
2022-12-24T19:08:57.595Z,7.38
2022-12-24T19:12:21.005Z,7.80
2022-12-24T19:14:31.995Z,7.55
2022-12-24T19:17:08.572Z,8.10
2022-12-24T19:19:37.049Z,7.65
2022-12-24T19:22:08.442Z,7.70
2022-12-24T19:24:36.847Z,7.82
2022-12-24T19:27:05.278Z,6.88
2022-12-24T19:29:43.652Z,7.03
2022-12-24T19:32:12.193Z,7.20
2022-12-24T19:34:52.389Z,7.90
2022-12-24T19:37:45.329Z,6.47
2022-12-24T19:40:13.905Z,6.72
2022-12-24T19:42:45.111Z,8.30
2022-12-24T19:45:13.371Z,7.60
2022-12-24T19:47:44.212Z,8.23
2022-12-24T19:50:12.746Z,7.05
2022-12-24T19:52:41.221Z,7.88
2022-12-24T19:55:11.409Z,7.50
2022-12-24T19:57:48.479Z,7.00
2022-12-24T20:00:17.306Z,8.07
2022-12-24T20:02:48.143Z,7.55
2022-12-24T20:05:22.304Z,6.65
2022-12-24T20:07:50.573Z,8.65
2022-12-24T20:10:22.400Z,8.40
2022-12-24T20:12:50.807Z,6.75
2022-12-24T20:15:19.134Z,7.45
2022-12-24T20:17:52.944Z,7.60
2022-12-24T20:20:23.704Z,6.65
2022-12-24T20:22:52.118Z,7.75
2022-12-24T20:25:20.632Z,6.90
2022-12-24T20:27:48.972Z,7.30
2022-12-24T20:30:17.757Z,8.23
2022-12-24T20:32:46.120Z,7.30
2022-12-24T20:35:14.431Z,7.55
2022-12-24T20:37:46.163Z,6.30
2022-12-24T20:40:15.121Z,6.57
2022-12-24T20:42:46.394Z,6.13
2022-12-24T20:45:14.919Z,6.43
2022-12-24T20:47:43.367Z,6.72
2022-12-24T20:50:11.954Z,6.40
2022-12-24T20:52:40.332Z,6.03
2022-12-24T20:55:08.795Z,5.95
2022-12-24T20:57:37.378Z,5.53
2022-12-24T21:00:06.558Z,5.60
2022-12-24T21:02:35.092Z,5.38
2022-12-24T21:05:04.771Z,5.57
2022-12-24T21:07:37.659Z,5.57
2022-12-24T21:10:10.341Z,6.03
2022-12-24T21:12:50.936Z,6.22
2022-12-24T21:15:26.113Z,5.57
2022-12-24T21:17:55.267Z,6.00
2022-12-24T21:20:25.850Z,5.72
2022-12-24T21:23:00.484Z,5.93
2022-12-24T21:25:29.465Z,5.28
2022-12-24T21:27:57.787Z,6.78
2022-12-24T21:30:26.421Z,6.50
2022-12-24T21:33:06.452Z,6.60
2022-12-24T21:35:37.823Z,6.85
2022-12-24T21:38:09.141Z,6.35
2022-12-24T21:43:11.393Z,6.97
2022-12-24T21:45:45.046Z,6.35
2022-12-24T21:48:35.903Z,6.57
2022-12-24T21:51:10.893Z,6.80
2022-12-24T21:54:03.805Z,7.97
2022-12-24T21:57:07.626Z,8.10
2022-12-24T21:59:38.429Z,5.93
2022-12-24T22:02:12.842Z,6.10
2022-12-24T22:04:47.153Z,6.50
2022-12-24T22:07:44.868Z,6.22
2022-12-24T22:10:32.915Z,6.45
2022-12-24T22:13:06.952Z,6.55
2022-12-24T22:15:36.159Z,6.63
2022-12-24T22:18:04.823Z,5.15
2022-12-24T22:20:33.133Z,4.85
2022-12-24T22:23:01.497Z,5.90
2022-12-24T22:25:33.556Z,4.65
2022-12-24T22:28:01.891Z,4.70
2022-12-24T22:30:30.627Z,4.88
2022-12-24T22:32:59.619Z,4.47
2022-12-24T22:35:27.913Z,4.45
2022-12-24T22:38:00.178Z,4.35
2022-12-24T22:40:29.270Z,4.60
2022-12-24T22:42:57.673Z,4.45
2022-12-24T22:45:26.103Z,6.07
2022-12-24T22:47:54.526Z,4.28
2022-12-24T22:50:22.870Z,6.80
2022-12-24T22:52:51.417Z,7.22
2022-12-24T22:55:19.914Z,7.10
2022-12-24T22:57:48.333Z,8.50
2022-12-24T23:00:37.824Z,8.18
2022-12-24T23:03:07.248Z,5.45
2022-12-24T23:05:36.080Z,8.98
2022-12-24T23:08:05.349Z,9.27
2022-12-24T23:10:35.144Z,8.75
2022-12-24T23:13:21.563Z,9.15
2022-12-24T23:15:50.488Z,8.82
2022-12-24T23:18:18.763Z,4.85
2022-12-24T23:20:47.260Z,7.43
2022-12-24T23:23:16.472Z,9.20
2022-12-24T23:25:44.738Z,9.88
2022-12-24T23:28:13.143Z,4.28
2022-12-24T23:30:41.543Z,6.70
2022-12-24T23:33:09.989Z,5.30
2022-12-24T23:35:41.509Z,3.75
2022-12-24T23:38:09.769Z,4.15
2022-12-24T23:40:38.027Z,6.93
2022-12-24T23:43:07.608Z,4.75
2022-12-24T23:45:35.905Z,5.88
2022-12-24T23:48:04.298Z,4.50
2022-12-24T23:50:32.943Z,7.60
2022-12-24T23:53:01.217Z,6.70
2022-12-24T23:55:29.509Z,4.95
2022-12-24T23:58:00.663Z,4.38
